createdAt,value
2019-01-12T00:00:39.387Z,16.46
2019-01-12T00:01:39.963Z,16.33
2019-01-12T00:02:40.532Z,16.31
2019-01-12T00:03:41.106Z,16.38
2019-01-12T00:04:41.719Z,16.31
2019-01-12T00:05:42.293Z,16.28
2019-01-12T00:06:42.865Z,16.23
2019-01-12T00:07:43.483Z,16.13
2019-01-12T00:08:44.106Z,16.17
2019-01-12T00:09:44.678Z,16.20
2019-01-12T00:10:45.301Z,16.20
2019-01-12T00:11:45.875Z,16.21
2019-01-12T00:12:46.447Z,16.26
2019-01-12T00:13:47.023Z,16.23
2019-01-12T00:14:47.595Z,16.15
2019-01-12T00:15:48.166Z,16.05
2019-01-12T00:16:48.740Z,16.08
2019-01-12T00:17:49.312Z,16.05
2019-01-12T00:18:49.889Z,16.02
2019-01-12T00:19:50.458Z,15.91
2019-01-12T00:20:51.032Z,15.88
2019-01-12T00:21:51.604Z,15.82
2019-01-12T00:22:52.177Z,15.79
2019-01-12T00:23:52.749Z,15.79
2019-01-12T00:24:53.326Z,15.68
2019-01-12T00:25:53.899Z,15.62
2019-01-12T00:26:54.475Z,15.59
2019-01-12T00:27:55.049Z,15.62
2019-01-12T00:28:55.675Z,15.62
2019-01-12T00:29:56.247Z,15.64
2019-01-12T00:30:57.072Z,15.57
2019-01-12T00:31:57.694Z,15.58
2019-01-12T00:32:58.267Z,15.47
2019-01-12T00:33:58.891Z,15.54
2019-01-12T00:34:59.505Z,15.54
2019-01-12T00:36:00.079Z,15.47
2019-01-12T00:37:00.652Z,15.39
2019-01-12T00:38:01.226Z,15.36
2019-01-12T00:39:01.796Z,15.33
2019-01-12T00:40:02.433Z,15.36
2019-01-12T00:41:03.096Z,15.29
2019-01-12T00:42:03.670Z,15.37
2019-01-12T00:43:04.281Z,15.43
2019-01-12T00:44:04.853Z,15.44
2019-01-12T00:45:05.427Z,15.40
2019-01-12T00:46:06.001Z,15.42
2019-01-12T00:47:06.571Z,15.47
2019-01-12T00:48:07.233Z,15.47
2019-01-12T00:49:07.771Z,15.47
2019-01-12T00:50:08.395Z,15.52
2019-01-12T00:51:09.018Z,15.49
2019-01-12T00:52:09.591Z,15.49
2019-01-12T00:53:10.165Z,15.52
2019-01-12T00:54:10.739Z,15.55
2019-01-12T00:55:11.364Z,15.51
2019-01-12T00:56:11.937Z,15.47
2019-01-12T00:57:12.509Z,15.44
2019-01-12T00:58:13.144Z,15.44
2019-01-12T00:59:13.667Z,15.47
2019-01-12T01:00:14.239Z,15.42
2019-01-12T01:01:14.812Z,15.49
2019-01-12T01:02:15.435Z,15.47
2019-01-12T01:03:16.011Z,15.58
2019-01-12T01:04:16.595Z,15.58
2019-01-12T01:05:17.159Z,15.54
2019-01-12T01:06:17.730Z,15.58
2019-01-12T01:07:18.353Z,15.49
2019-01-12T01:08:18.924Z,15.51
2019-01-12T01:09:19.497Z,15.52
2019-01-12T01:10:20.120Z,15.44
2019-01-12T01:11:20.692Z,15.47
2019-01-12T01:12:21.265Z,15.46
2019-01-12T01:13:21.842Z,15.49
2019-01-12T01:14:22.414Z,15.54
2019-01-12T01:15:22.986Z,15.51
2019-01-12T01:16:23.560Z,15.57
2019-01-12T01:17:24.132Z,15.46
2019-01-12T01:18:24.707Z,15.54
2019-01-12T01:19:25.279Z,15.46
2019-01-12T01:20:25.853Z,15.54
2019-01-12T01:21:26.426Z,15.51
2019-01-12T01:22:26.999Z,15.51
2019-01-12T01:23:27.571Z,15.51
2019-01-12T01:24:28.141Z,15.47
2019-01-12T01:25:28.714Z,15.55
2019-01-12T01:26:29.336Z,15.58
2019-01-12T01:27:29.911Z,15.58
2019-01-12T01:28:30.483Z,15.61
2019-01-12T01:29:31.058Z,15.62
2019-01-12T01:30:31.631Z,15.59
2019-01-12T01:31:32.207Z,15.65
2019-01-12T01:32:32.780Z,15.67
2019-01-12T01:33:33.354Z,15.58
2019-01-12T01:34:33.925Z,15.55
2019-01-12T01:35:34.498Z,15.43
2019-01-12T01:36:35.069Z,15.54
2019-01-12T01:37:35.640Z,15.58
2019-01-12T01:38:36.213Z,15.61
2019-01-12T01:39:36.786Z,15.62
2019-01-12T01:40:37.358Z,15.59
2019-01-12T01:41:37.979Z,15.62
2019-01-12T01:42:38.554Z,15.59
2019-01-12T01:43:39.127Z,15.59
2019-01-12T01:44:39.700Z,15.61
2019-01-12T01:45:40.274Z,15.65
2019-01-12T01:46:40.973Z,15.72
2019-01-12T01:47:41.552Z,15.76
2019-01-12T01:48:42.122Z,15.68
2019-01-12T01:49:42.744Z,15.82
2019-01-12T01:50:43.317Z,15.68
2019-01-12T01:51:43.895Z,15.64
2019-01-12T01:52:44.464Z,15.61
2019-01-12T01:53:45.038Z,15.65
2019-01-12T01:54:52.589Z,15.65
2019-01-12T01:55:47.178Z,15.68
2019-01-12T01:56:47.755Z,15.62
2019-01-12T01:57:48.368Z,15.62
2019-01-12T01:58:48.942Z,15.67
2019-01-12T01:59:49.566Z,15.59
2019-01-12T02:00:50.139Z,15.68
2019-01-12T02:01:50.712Z,15.59
2019-01-12T02:02:51.285Z,15.57
2019-01-12T02:03:51.907Z,15.65
2019-01-12T02:04:52.631Z,15.54
2019-01-12T02:05:53.204Z,15.55
2019-01-12T02:06:53.778Z,15.55
2019-01-12T02:07:54.351Z,15.58
2019-01-12T02:08:54.925Z,15.57
2019-01-12T02:09:55.498Z,15.61
2019-01-12T02:10:56.071Z,15.58
2019-01-12T02:11:56.642Z,15.61
2019-01-12T02:12:57.222Z,15.54
2019-01-12T02:13:57.795Z,15.52
2019-01-12T02:14:58.365Z,15.58
2019-01-12T02:15:58.939Z,15.62
2019-01-12T02:16:59.512Z,15.54
2019-01-12T02:18:00.126Z,15.62
2019-01-12T02:19:00.699Z,15.62
2019-01-12T02:20:01.273Z,15.52
2019-01-12T02:21:01.877Z,15.51
2019-01-12T02:22:02.449Z,15.46
2019-01-12T02:23:03.079Z,15.52
2019-01-12T02:24:03.647Z,15.42
2019-01-12T02:25:04.219Z,15.39
2019-01-12T02:26:04.793Z,15.49
2019-01-12T02:27:05.365Z,15.43
2019-01-12T02:28:05.941Z,15.46
2019-01-12T02:29:06.513Z,15.51
2019-01-12T02:30:07.089Z,15.47
2019-01-12T02:31:07.660Z,15.54
2019-01-12T02:32:08.234Z,15.44
2019-01-12T02:33:08.810Z,15.51
2019-01-12T02:34:09.378Z,15.43
2019-01-12T02:35:10.099Z,15.42
2019-01-12T02:36:10.675Z,15.49
2019-01-12T02:37:11.255Z,15.37
2019-01-12T02:38:11.817Z,15.33
2019-01-12T02:39:12.432Z,15.29
2019-01-12T02:40:13.005Z,15.25
2019-01-12T02:41:13.633Z,15.29
2019-01-12T02:42:14.159Z,15.29
2019-01-12T02:43:14.781Z,15.27
2019-01-12T02:44:15.352Z,15.31
2019-01-12T02:45:15.926Z,15.35
2019-01-12T02:46:17.303Z,15.19
2019-01-12T02:47:17.871Z,15.17
2019-01-12T02:48:18.493Z,15.17
2019-01-12T02:49:19.063Z,15.21
2019-01-12T02:50:19.637Z,15.07
2019-01-12T02:51:20.211Z,15.18
2019-01-12T02:52:20.834Z,15.10
2019-01-12T02:53:21.411Z,15.02
2019-01-12T02:54:21.980Z,15.04
2019-01-12T02:55:22.556Z,15.09
2019-01-12T02:56:23.130Z,14.97
2019-01-12T02:57:23.703Z,15.11
2019-01-12T02:58:24.272Z,14.96
2019-01-12T02:59:24.850Z,15.07
2019-01-12T03:00:25.417Z,15.11
2019-01-12T03:01:25.992Z,15.14
2019-01-12T03:02:26.565Z,15.19
2019-01-12T03:03:27.137Z,15.10
2019-01-12T03:04:27.708Z,15.10
2019-01-12T03:05:28.329Z,15.11
2019-01-12T03:06:28.904Z,15.17
2019-01-12T03:07:29.475Z,15.11
2019-01-12T03:08:30.048Z,15.15
2019-01-12T03:09:30.621Z,15.02
2019-01-12T03:10:31.246Z,15.06
2019-01-12T03:11:31.818Z,15.09
2019-01-12T03:12:32.391Z,15.09
2019-01-12T03:13:32.963Z,15.03
2019-01-12T03:14:33.535Z,14.99
2019-01-12T03:15:34.108Z,14.97
2019-01-12T03:16:34.679Z,14.92
2019-01-12T03:17:35.254Z,14.86
2019-01-12T03:18:35.869Z,14.92
2019-01-12T03:19:36.442Z,14.84
2019-01-12T03:20:37.014Z,14.85
2019-01-12T03:21:37.584Z,14.86
2019-01-12T03:22:38.206Z,14.86
2019-01-12T03:23:38.785Z,14.92
2019-01-12T03:24:39.352Z,14.94
2019-01-12T03:25:39.929Z,14.91
2019-01-12T03:26:40.499Z,14.89
2019-01-12T03:27:41.073Z,14.96
2019-01-12T03:28:41.647Z,14.92
2019-01-12T03:29:42.220Z,14.85
2019-01-12T03:30:42.913Z,14.73
2019-01-12T03:31:43.479Z,14.69
2019-01-12T03:32:44.105Z,14.73
2019-01-12T03:33:44.705Z,14.70
2019-01-12T03:34:45.280Z,14.79
2019-01-12T03:35:45.852Z,14.69
2019-01-12T03:36:46.431Z,14.72
2019-01-12T03:37:46.995Z,14.81
2019-01-12T03:38:47.567Z,14.70
2019-01-12T03:39:48.141Z,14.77
2019-01-12T03:40:48.743Z,14.88
2019-01-12T03:41:49.317Z,14.85
2019-01-12T03:42:49.984Z,14.70
2019-01-12T03:43:50.555Z,14.77
2019-01-12T03:44:51.127Z,14.77
2019-01-12T03:45:51.701Z,14.81
2019-01-12T03:46:52.273Z,14.81
2019-01-12T03:47:52.846Z,14.77
2019-01-12T03:48:53.470Z,14.77
2019-01-12T03:49:54.044Z,14.79
2019-01-12T03:50:54.617Z,14.70
2019-01-12T03:51:55.189Z,14.73
2019-01-12T03:52:55.769Z,14.73
2019-01-12T03:53:56.334Z,14.70
2019-01-12T03:54:56.913Z,14.65
2019-01-12T03:55:57.480Z,14.65
2019-01-12T03:56:58.055Z,14.62
2019-01-12T03:57:58.625Z,14.68
2019-01-12T03:58:59.200Z,14.70
2019-01-12T03:59:59.772Z,14.69
2019-01-12T04:01:00.344Z,14.78
2019-01-12T04:02:00.921Z,14.72
2019-01-12T04:03:01.576Z,14.69
2019-01-12T04:04:02.105Z,14.65
2019-01-12T04:05:02.678Z,14.66
2019-01-12T04:06:03.251Z,14.62
2019-01-12T04:07:03.822Z,14.70
2019-01-12T04:08:04.397Z,14.66
2019-01-12T04:09:04.967Z,14.63
2019-01-12T04:10:05.543Z,14.63
2019-01-12T04:11:06.166Z,14.62
2019-01-12T04:12:06.737Z,14.65
2019-01-12T04:13:07.310Z,14.77
2019-01-12T04:14:07.937Z,14.63
2019-01-12T04:15:08.534Z,14.72
2019-01-12T04:16:09.103Z,14.65
2019-01-12T04:17:09.725Z,14.63
2019-01-12T04:18:10.298Z,14.68
2019-01-12T04:19:10.874Z,14.60
2019-01-12T04:20:11.451Z,14.63
2019-01-12T04:21:12.022Z,14.58
2019-01-12T04:22:12.592Z,14.60
2019-01-12T04:23:13.215Z,14.59
2019-01-12T04:24:13.788Z,14.63
2019-01-12T04:25:14.361Z,14.66
2019-01-12T04:26:14.937Z,14.60
2019-01-12T04:27:15.554Z,14.63
2019-01-12T04:28:16.175Z,14.66
2019-01-12T04:29:16.751Z,14.63
2019-01-12T04:30:17.370Z,14.68
2019-01-12T04:31:17.943Z,14.69
2019-01-12T04:32:18.515Z,14.77
2019-01-12T04:33:19.089Z,14.73
2019-01-12T04:34:19.705Z,14.81
2019-01-12T04:35:20.281Z,14.84
2019-01-12T04:36:20.848Z,14.91
2019-01-12T04:37:21.434Z,14.88
2019-01-12T04:38:22.243Z,14.94
2019-01-12T04:39:22.816Z,14.94
2019-01-12T04:40:23.401Z,14.94
2019-01-12T04:41:23.961Z,14.88
2019-01-12T04:42:24.532Z,14.88
2019-01-12T04:43:25.104Z,14.92
2019-01-12T04:44:25.674Z,14.96
2019-01-12T04:45:26.246Z,14.89
2019-01-12T04:46:26.968Z,14.97
2019-01-12T04:47:27.538Z,14.89
2019-01-12T04:48:28.117Z,14.92
2019-01-12T04:49:28.683Z,15.04
2019-01-12T04:50:29.308Z,15.02
2019-01-12T04:51:29.882Z,14.99
2019-01-12T04:52:30.456Z,14.99
2019-01-12T04:53:31.222Z,15.04
2019-01-12T04:54:31.795Z,15.00
2019-01-12T04:55:32.368Z,15.00
2019-01-12T04:56:32.991Z,14.97
2019-01-12T04:57:33.564Z,15.03
2019-01-12T04:58:34.140Z,14.97
2019-01-12T04:59:34.713Z,15.00
2019-01-12T05:00:35.285Z,15.00
2019-01-12T05:01:35.859Z,15.00
2019-01-12T05:02:36.431Z,15.06
2019-01-12T05:03:37.004Z,15.04
2019-01-12T05:04:37.579Z,15.11
2019-01-12T05:05:38.149Z,15.04
2019-01-12T05:06:38.717Z,15.14
2019-01-12T05:07:39.291Z,15.02
2019-01-12T05:08:39.864Z,15.09
2019-01-12T05:09:40.432Z,15.10
2019-01-12T05:10:41.002Z,15.03
2019-01-12T05:11:41.624Z,15.14
2019-01-12T05:12:42.197Z,15.10
2019-01-12T05:13:42.769Z,15.00
2019-01-12T05:14:43.346Z,15.09
2019-01-12T05:15:43.918Z,15.09
2019-01-12T05:16:44.488Z,15.15
2019-01-12T05:17:45.064Z,15.10
2019-01-12T05:18:45.636Z,15.10
2019-01-12T05:19:46.248Z,15.15
2019-01-12T05:20:46.871Z,15.10
2019-01-12T05:21:47.441Z,15.10
2019-01-12T05:22:48.022Z,15.17
2019-01-12T05:23:48.630Z,15.07
2019-01-12T05:24:49.200Z,15.17
2019-01-12T05:25:49.777Z,15.11
2019-01-12T05:26:50.345Z,15.15
2019-01-12T05:27:50.917Z,15.09
2019-01-12T05:28:51.691Z,15.10
2019-01-12T05:29:52.262Z,15.15
2019-01-12T05:30:52.836Z,15.14
2019-01-12T05:31:53.407Z,15.15
2019-01-12T05:32:53.980Z,15.14
2019-01-12T05:33:54.552Z,15.09
2019-01-12T05:34:55.126Z,15.10
2019-01-12T05:35:55.697Z,15.15
2019-01-12T05:36:56.270Z,15.14
2019-01-12T05:37:56.894Z,15.09
2019-01-12T05:38:57.467Z,15.07
2019-01-12T05:39:58.039Z,15.14
2019-01-12T05:40:58.612Z,15.11
2019-01-12T05:41:59.183Z,15.10
2019-01-12T05:42:59.754Z,15.15
2019-01-12T05:44:00.327Z,15.11
2019-01-12T05:45:00.901Z,15.03
2019-01-12T05:46:01.473Z,15.04
2019-01-12T05:47:02.095Z,15.02
2019-01-12T05:48:02.666Z,15.02
2019-01-12T05:49:03.287Z,15.07
2019-01-12T05:50:03.861Z,15.06
2019-01-12T05:51:04.434Z,15.02
2019-01-12T05:52:05.005Z,14.99
2019-01-12T05:53:05.586Z,15.00
2019-01-12T05:54:06.151Z,14.96
2019-01-12T05:55:06.725Z,15.03
2019-01-12T05:56:07.298Z,15.00
2019-01-12T05:57:07.869Z,14.97
2019-01-12T05:58:08.443Z,15.04
2019-01-12T05:59:09.057Z,15.00
2019-01-12T06:00:09.629Z,14.99
2019-01-12T06:01:10.203Z,14.94
2019-01-12T06:02:10.773Z,14.89
2019-01-12T06:03:11.343Z,14.92
2019-01-12T06:04:11.915Z,15.00
2019-01-12T06:05:12.488Z,14.94
2019-01-12T06:06:13.061Z,14.94
2019-01-12T06:07:13.633Z,14.91
2019-01-12T06:08:14.207Z,14.85
2019-01-12T06:09:14.780Z,14.85
2019-01-12T06:10:15.354Z,14.86
2019-01-12T06:11:15.974Z,14.82
2019-01-12T06:12:16.547Z,14.85
2019-01-12T06:13:17.118Z,14.86
2019-01-12T06:14:17.741Z,14.77
2019-01-12T06:15:18.311Z,14.73
2019-01-12T06:16:18.883Z,14.81
2019-01-12T06:17:19.454Z,14.78
2019-01-12T06:18:20.026Z,14.70
2019-01-12T06:19:20.646Z,14.69
2019-01-12T06:20:21.223Z,14.81
2019-01-12T06:21:21.794Z,14.79
2019-01-12T06:22:22.365Z,14.70
2019-01-12T06:23:22.937Z,14.65
2019-01-12T06:24:23.510Z,14.77
2019-01-12T06:25:24.093Z,14.78
2019-01-12T06:26:24.655Z,14.69
2019-01-12T06:27:25.227Z,14.72
2019-01-12T06:28:25.799Z,14.73
2019-01-12T06:29:26.373Z,14.70
2019-01-12T06:30:26.994Z,14.69
2019-01-12T06:31:27.617Z,14.72
2019-01-12T06:32:28.191Z,14.63
2019-01-12T06:33:28.762Z,14.69
2019-01-12T06:34:29.335Z,14.70
2019-01-12T06:35:29.912Z,14.72
2019-01-12T06:36:30.481Z,14.66
2019-01-12T06:37:31.052Z,14.72
2019-01-12T06:38:31.624Z,14.66
2019-01-12T06:39:32.246Z,14.66
2019-01-12T06:40:32.819Z,14.60
2019-01-12T06:41:33.392Z,14.66
2019-01-12T06:42:33.964Z,14.66
2019-01-12T06:43:34.538Z,14.66
2019-01-12T06:44:35.109Z,14.73
2019-01-12T06:45:35.683Z,14.70
2019-01-12T06:46:36.255Z,14.70
2019-01-12T06:47:36.827Z,14.69
2019-01-12T06:48:37.399Z,14.65
2019-01-12T06:49:38.064Z,14.70
2019-01-12T06:50:38.639Z,14.78
2019-01-12T06:51:39.211Z,14.77
2019-01-12T06:52:39.784Z,14.77
2019-01-12T06:53:40.356Z,14.69
2019-01-12T06:54:40.931Z,14.70
2019-01-12T06:55:41.501Z,14.65
2019-01-12T06:56:42.075Z,14.68
2019-01-12T06:57:42.650Z,14.73
2019-01-12T06:58:43.220Z,14.60
2019-01-12T06:59:43.792Z,14.63
2019-01-12T07:00:44.364Z,14.54
2019-01-12T07:01:44.934Z,14.59
2019-01-12T07:02:45.505Z,14.59
2019-01-12T07:03:46.076Z,14.54
2019-01-12T07:04:46.648Z,14.62
2019-01-12T07:05:47.221Z,14.55
2019-01-12T07:06:47.790Z,14.59
2019-01-12T07:07:48.362Z,14.54
2019-01-12T07:08:48.983Z,14.66
2019-01-12T07:09:49.558Z,14.66
2019-01-12T07:10:50.127Z,14.65
2019-01-12T07:11:50.698Z,14.65
2019-01-12T07:12:51.270Z,14.66
2019-01-12T07:13:51.843Z,14.69
2019-01-12T07:14:52.416Z,14.68
2019-01-12T07:15:52.988Z,14.78
2019-01-12T07:16:53.560Z,14.72
2019-01-12T07:17:54.134Z,14.68
2019-01-12T07:18:54.705Z,14.81
2019-01-12T07:19:55.279Z,14.73
2019-01-12T07:20:55.852Z,14.68
2019-01-12T07:21:56.424Z,14.68
2019-01-12T07:22:56.996Z,14.66
2019-01-12T07:23:57.568Z,14.77
2019-01-12T07:24:58.190Z,14.73
2019-01-12T07:25:58.760Z,14.73
2019-01-12T07:26:59.333Z,14.70
2019-01-12T07:27:59.907Z,14.68
2019-01-12T07:29:00.484Z,14.69
2019-01-12T07:30:01.053Z,14.72
2019-01-12T07:31:01.626Z,14.72
2019-01-12T07:32:02.245Z,14.66
2019-01-12T07:33:02.816Z,14.77
2019-01-12T07:34:03.387Z,14.84
2019-01-12T07:35:03.958Z,14.69
2019-01-12T07:36:04.533Z,14.70
2019-01-12T07:37:05.100Z,14.68
2019-01-12T07:38:05.673Z,14.73
2019-01-12T07:39:06.292Z,14.70
2019-01-12T07:40:06.857Z,14.72
2019-01-12T07:41:07.432Z,14.70
2019-01-12T07:42:08.000Z,14.65
2019-01-12T07:43:08.574Z,14.62
2019-01-12T07:44:09.157Z,14.53
2019-01-12T07:45:09.718Z,14.60
2019-01-12T07:46:10.290Z,14.53
2019-01-12T07:47:10.907Z,14.63
2019-01-12T07:48:11.476Z,14.58
2019-01-12T07:49:12.048Z,14.53
2019-01-12T07:50:12.620Z,14.55
2019-01-12T07:51:13.194Z,14.62
2019-01-12T07:52:13.768Z,14.54
2019-01-12T07:53:14.342Z,14.60
2019-01-12T07:54:14.958Z,14.54
2019-01-12T07:55:15.530Z,14.60
2019-01-12T07:56:16.155Z,14.53
2019-01-12T07:57:16.730Z,14.55
2019-01-12T07:58:17.301Z,14.62
2019-01-12T07:59:17.874Z,14.53
2019-01-12T08:00:18.453Z,14.55
2019-01-12T08:01:19.022Z,14.51
2019-01-12T08:02:19.643Z,14.51
2019-01-12T08:03:20.267Z,14.47
2019-01-12T08:04:20.838Z,14.44
2019-01-12T08:05:21.411Z,14.36
2019-01-12T08:06:21.983Z,14.26
2019-01-12T08:07:22.555Z,14.43
2019-01-12T08:08:23.129Z,14.26
2019-01-12T08:09:23.700Z,14.33
2019-01-12T08:10:24.271Z,14.29
2019-01-12T08:11:24.843Z,14.30
2019-01-12T08:12:25.415Z,14.26
2019-01-12T08:13:25.987Z,14.26
2019-01-12T08:14:26.559Z,14.25
2019-01-12T08:15:27.128Z,14.26
2019-01-12T08:16:27.701Z,14.25
2019-01-12T08:17:28.271Z,14.28
2019-01-12T08:18:28.844Z,14.29
2019-01-12T08:19:29.464Z,14.32
2019-01-12T08:20:30.037Z,14.26
2019-01-12T08:21:30.610Z,14.29
2019-01-12T08:22:31.185Z,14.29
2019-01-12T08:23:31.762Z,14.35
2019-01-12T08:24:32.332Z,14.41
2019-01-12T08:25:32.905Z,14.26
2019-01-12T08:26:33.475Z,14.25
2019-01-12T08:27:34.050Z,14.30
2019-01-12T08:28:34.620Z,14.44
2019-01-12T08:29:35.192Z,14.40
2019-01-12T08:30:35.767Z,14.41
2019-01-12T08:31:36.335Z,14.37
2019-01-12T08:32:36.922Z,14.40
2019-01-12T08:33:37.479Z,14.51
2019-01-12T08:34:38.101Z,14.44
2019-01-12T08:35:38.674Z,14.47
2019-01-12T08:36:39.545Z,14.40
2019-01-12T08:37:40.118Z,14.59
2019-01-12T08:38:40.891Z,14.48
2019-01-12T08:39:41.462Z,14.45
2019-01-12T08:40:42.039Z,14.51
2019-01-12T08:41:42.605Z,14.50
2019-01-12T08:42:43.174Z,14.36
2019-01-12T08:43:43.749Z,14.37
2019-01-12T08:44:44.317Z,14.36
2019-01-12T08:45:44.889Z,14.45
2019-01-12T08:46:45.463Z,14.48
2019-01-12T08:47:46.035Z,14.45
2019-01-12T08:48:46.621Z,14.37
2019-01-12T08:49:47.180Z,14.33
2019-01-12T08:50:47.753Z,14.43
2019-01-12T08:51:48.324Z,14.37
2019-01-12T08:52:48.900Z,14.41
2019-01-12T08:53:49.564Z,14.37
2019-01-12T08:54:50.136Z,14.37
2019-01-12T08:55:50.707Z,14.51
2019-01-12T08:56:51.280Z,14.37
2019-01-12T08:57:51.856Z,14.35
2019-01-12T08:58:52.478Z,14.37
2019-01-12T08:59:53.054Z,14.40
2019-01-12T09:00:53.622Z,14.33
2019-01-12T09:01:54.194Z,14.35
2019-01-12T09:02:54.773Z,14.29
2019-01-12T09:03:55.335Z,14.30
2019-01-12T09:04:55.905Z,14.36
2019-01-12T09:05:56.480Z,14.40
2019-01-12T09:06:57.049Z,14.43
2019-01-12T09:07:57.626Z,14.32
2019-01-12T09:08:58.191Z,14.37
2019-01-12T09:09:58.763Z,14.35
2019-01-12T09:10:59.333Z,14.45
2019-01-12T09:11:59.905Z,14.47
2019-01-12T09:13:00.475Z,14.47
2019-01-12T09:14:01.047Z,14.53
2019-01-12T09:15:01.619Z,14.47
2019-01-12T09:16:02.191Z,14.51
2019-01-12T09:17:02.811Z,14.50
2019-01-12T09:18:03.384Z,14.59
2019-01-12T09:19:03.955Z,14.45
2019-01-12T09:20:04.528Z,14.59
2019-01-12T09:21:05.102Z,14.51
2019-01-12T09:22:05.673Z,14.54
2019-01-12T09:23:06.298Z,14.58
2019-01-12T09:24:06.870Z,14.50
2019-01-12T09:25:07.441Z,14.54
2019-01-12T09:26:08.012Z,14.55
2019-01-12T09:27:08.583Z,14.55
2019-01-12T09:28:09.158Z,14.53
2019-01-12T09:29:09.730Z,14.55
2019-01-12T09:30:10.303Z,14.59
2019-01-12T09:31:10.873Z,14.59
2019-01-12T09:32:11.448Z,14.62
2019-01-12T09:33:12.022Z,14.65
2019-01-12T09:34:12.645Z,14.58
2019-01-12T09:35:13.265Z,14.60
2019-01-12T09:36:13.839Z,14.55
2019-01-12T09:37:14.413Z,14.60
2019-01-12T09:38:15.036Z,14.62
2019-01-12T09:39:15.606Z,14.65
2019-01-12T09:40:16.178Z,14.66
2019-01-12T09:41:16.749Z,14.70
2019-01-12T09:42:17.319Z,14.63
2019-01-12T09:43:17.891Z,14.68
2019-01-12T09:44:18.464Z,14.69
2019-01-12T09:45:19.034Z,14.72
2019-01-12T09:46:19.649Z,14.63
2019-01-12T09:47:20.220Z,14.72
2019-01-12T09:48:20.793Z,14.66
2019-01-12T09:49:21.411Z,14.69
2019-01-12T09:50:21.985Z,14.73
2019-01-12T09:51:22.556Z,14.69
2019-01-12T09:52:23.130Z,14.73
2019-01-12T09:53:23.701Z,14.70
2019-01-12T09:54:24.274Z,14.70
2019-01-12T09:55:24.896Z,14.70
2019-01-12T09:56:25.518Z,14.69
2019-01-12T09:57:26.092Z,14.72
2019-01-12T09:58:26.672Z,14.70
2019-01-12T09:59:27.241Z,14.79
2019-01-12T10:00:27.856Z,14.72
2019-01-12T10:01:28.427Z,14.66
2019-01-12T10:02:28.998Z,14.73
2019-01-12T10:03:29.568Z,14.78
2019-01-12T10:04:30.190Z,14.82
2019-01-12T10:05:30.763Z,14.79
2019-01-12T10:06:31.337Z,14.70
2019-01-12T10:07:31.909Z,14.72
2019-01-12T10:08:32.483Z,14.72
2019-01-12T10:09:33.054Z,14.72
2019-01-12T10:10:33.671Z,14.72
2019-01-12T10:11:34.244Z,14.70
2019-01-12T10:12:34.817Z,14.69
2019-01-12T10:13:35.439Z,14.78
2019-01-12T10:14:36.058Z,14.70
2019-01-12T10:15:36.631Z,14.72
2019-01-12T10:16:37.205Z,14.77
2019-01-12T10:17:37.775Z,14.79
2019-01-12T10:18:38.346Z,14.69
2019-01-12T10:19:38.968Z,14.82
2019-01-12T10:20:39.538Z,14.81
2019-01-12T10:21:40.111Z,14.81
2019-01-12T10:22:40.681Z,14.72
2019-01-12T10:23:41.251Z,14.81
2019-01-12T10:24:41.822Z,14.77
2019-01-12T10:25:42.394Z,14.72
2019-01-12T10:26:42.966Z,14.81
2019-01-12T10:27:43.540Z,14.84
2019-01-12T10:28:44.164Z,14.77
2019-01-12T10:29:44.707Z,14.79
2019-01-12T10:30:45.487Z,14.79
2019-01-12T10:31:46.094Z,14.81
2019-01-12T10:32:46.667Z,14.73
2019-01-12T10:33:47.294Z,14.73
2019-01-12T10:34:47.861Z,14.78
2019-01-12T10:35:48.432Z,14.79
2019-01-12T10:36:49.006Z,14.79
2019-01-12T10:37:49.576Z,14.72
2019-01-12T10:38:50.148Z,14.82
2019-01-12T10:39:50.721Z,14.73
2019-01-12T10:40:51.295Z,14.81
2019-01-12T10:41:51.873Z,14.85
2019-01-12T10:42:52.487Z,14.77
2019-01-12T10:43:53.060Z,14.85
2019-01-12T10:44:53.633Z,14.85
2019-01-12T10:45:54.205Z,14.86
2019-01-12T10:46:54.777Z,14.89
2019-01-12T10:47:55.349Z,14.88
2019-01-12T10:48:55.922Z,14.84
2019-01-12T10:49:56.491Z,14.82
2019-01-12T10:50:57.113Z,14.78
2019-01-12T10:51:57.685Z,14.72
2019-01-12T10:52:58.258Z,14.84
2019-01-12T10:53:58.832Z,14.82
2019-01-12T10:54:59.406Z,14.81
2019-01-12T10:55:59.982Z,14.72
2019-01-12T10:57:05.501Z,14.77
2019-01-12T10:58:02.117Z,14.79
2019-01-12T10:59:02.689Z,14.81
2019-01-12T11:00:03.263Z,14.79
2019-01-12T11:01:03.834Z,14.81
2019-01-12T11:02:04.460Z,14.79
2019-01-12T11:03:05.031Z,14.84
2019-01-12T11:04:05.605Z,14.86
2019-01-12T11:05:06.174Z,14.73
2019-01-12T11:06:06.747Z,14.86
2019-01-12T11:07:07.320Z,14.85
2019-01-12T11:08:07.890Z,14.86
2019-01-12T11:09:08.462Z,14.85
2019-01-12T11:10:09.033Z,14.88
2019-01-12T11:11:09.606Z,14.85
2019-01-12T11:12:10.175Z,14.85
2019-01-12T11:13:10.746Z,14.96
2019-01-12T11:14:11.318Z,14.91
2019-01-12T11:15:11.887Z,14.86
2019-01-12T11:16:12.459Z,14.92
2019-01-12T11:17:13.032Z,14.85
2019-01-12T11:18:13.654Z,14.92
2019-01-12T11:19:14.227Z,14.89
2019-01-12T11:20:14.800Z,14.96
2019-01-12T11:21:15.380Z,14.97
2019-01-12T11:22:15.975Z,14.91
2019-01-12T11:23:16.570Z,14.88
2019-01-12T11:24:17.142Z,14.91
2019-01-12T11:25:17.714Z,14.91
2019-01-12T11:26:18.285Z,14.89
2019-01-12T11:27:18.858Z,14.99
2019-01-12T11:28:19.433Z,14.94
2019-01-12T11:29:20.051Z,14.92
2019-01-12T11:30:20.624Z,14.88
2019-01-12T11:31:21.197Z,14.96
2019-01-12T11:32:21.772Z,14.92
2019-01-12T11:33:22.344Z,14.89
2019-01-12T11:34:22.916Z,14.89
2019-01-12T11:35:23.488Z,14.88
2019-01-12T11:36:24.095Z,14.94
2019-01-12T11:37:24.631Z,14.86
2019-01-12T11:38:25.212Z,15.00
2019-01-12T11:39:25.793Z,14.86
2019-01-12T11:40:26.348Z,14.89
2019-01-12T11:41:26.918Z,14.92
2019-01-12T11:42:27.532Z,14.94
2019-01-12T11:43:28.104Z,14.92
2019-01-12T11:44:28.676Z,14.89
2019-01-12T11:45:29.247Z,14.86
2019-01-12T11:46:29.870Z,14.86
2019-01-12T11:47:30.487Z,14.84
2019-01-12T11:48:31.060Z,14.88
2019-01-12T11:49:31.633Z,14.84
2019-01-12T11:50:32.249Z,14.86
2019-01-12T11:51:32.824Z,14.89
2019-01-12T11:52:33.438Z,14.84
2019-01-12T11:53:34.012Z,14.82
2019-01-12T11:54:34.584Z,14.85
2019-01-12T11:55:35.156Z,14.84
2019-01-12T11:56:35.731Z,14.77
2019-01-12T11:57:36.302Z,14.73
2019-01-12T11:58:36.874Z,14.73
2019-01-12T11:59:37.446Z,14.70
2019-01-12T12:00:38.168Z,14.77
2019-01-12T12:01:38.740Z,14.68
2019-01-12T12:02:39.362Z,14.66
2019-01-12T12:03:39.938Z,14.65
2019-01-12T12:04:40.552Z,14.65
2019-01-12T12:05:41.127Z,14.69
2019-01-12T12:06:41.697Z,14.62
2019-01-12T12:07:42.269Z,14.69
2019-01-12T12:08:42.841Z,14.63
2019-01-12T12:09:43.413Z,14.66
2019-01-12T12:10:43.985Z,14.59
2019-01-12T12:11:44.556Z,14.63
2019-01-12T12:12:45.129Z,14.60
2019-01-12T12:13:45.700Z,14.55
2019-01-12T12:14:46.275Z,14.54
2019-01-12T12:15:46.844Z,14.54
2019-01-12T12:16:47.458Z,14.55
2019-01-12T12:17:48.037Z,14.60
2019-01-12T12:18:48.654Z,14.55
2019-01-12T12:19:49.228Z,14.50
2019-01-12T12:20:49.799Z,14.54
2019-01-12T12:21:50.371Z,14.58
2019-01-12T12:22:50.996Z,14.59
2019-01-12T12:23:51.610Z,14.51
2019-01-12T12:24:52.183Z,14.47
2019-01-12T12:25:52.754Z,14.54
2019-01-12T12:26:53.328Z,14.54
2019-01-12T12:27:53.912Z,14.47
2019-01-12T12:28:54.484Z,14.55
2019-01-12T12:29:55.056Z,14.63
2019-01-12T12:30:55.728Z,14.50
2019-01-12T12:31:56.401Z,14.54
2019-01-12T12:32:57.173Z,14.47
2019-01-12T12:33:57.745Z,14.55
2019-01-12T12:34:58.318Z,14.50
2019-01-12T12:35:58.891Z,14.55
2019-01-12T12:36:59.464Z,14.54
2019-01-12T12:38:00.038Z,14.63
2019-01-12T12:39:00.609Z,14.59
2019-01-12T12:40:01.180Z,14.53
2019-01-12T12:41:01.751Z,14.59
2019-01-12T12:42:02.323Z,14.54
2019-01-12T12:43:02.898Z,14.55
2019-01-12T12:44:03.465Z,14.59
2019-01-12T12:45:04.036Z,14.50
2019-01-12T12:46:04.660Z,14.47
2019-01-12T12:47:05.231Z,14.54
2019-01-12T12:48:05.803Z,14.58
2019-01-12T12:49:06.383Z,14.62
2019-01-12T12:50:06.956Z,14.70
2019-01-12T12:51:07.532Z,14.78
2019-01-12T12:52:08.109Z,14.89
2019-01-12T12:53:08.736Z,14.97
2019-01-12T12:54:09.311Z,14.92
2019-01-12T12:55:09.889Z,15.02
2019-01-12T12:56:10.467Z,15.06
2019-01-12T12:57:11.045Z,15.10
2019-01-12T12:58:11.620Z,15.07
2019-01-12T12:59:12.198Z,15.22
2019-01-12T13:00:12.776Z,15.10